Time;durP1;ratioP1;P1;durP2;ratioP2;P2;SDS_P1;SDS_P2;PMS_P1;PMS_P2;Temp;Humidity;BMP_temperature;BMP_pressure;BME280_temperature;BME280_humidity;BME280_pressure;Samples;Min_cycle;Max_cycle;Signal;HPM_P1;HPM_P2
2022/11/18 00:00:48;;;;;;;1.98;1.48;;;;;;;;;;5092772;28;20016;-83
2022/11/18 00:03:13;;;;;;;1.75;1.25;;;;;;;;;;5093044;28;20035;-83
2022/11/18 00:05:38;;;;;;;2.83;1.65;;;;;;;;;;5092204;28;20066;-81
2022/11/18 00:08:04;;;;;;;1.70;1.17;;;;;;;;;;5090488;28;20766;-82
2022/11/18 00:10:30;;;;;;;2.35;1.42;;;;;;;;;;5092703;28;20024;-83
2022/11/18 00:15:40;;;;;;;1.80;1.10;;;;;;;;;;5091056;28;20019;-82
2022/11/18 00:18:05;;;;;;;1.75;1.10;;;;;;;;;;5092079;28;20102;-84
2022/11/18 00:20:33;;;;;;;2.00;1.45;;;;;;;;;;5092057;28;20392;-81
2022/11/18 00:22:58;;;;;;;1.98;1.38;;;;;;;;;;5092745;28;20019;-84
2022/11/18 00:25:24;;;;;;;2.95;1.85;;;;;;;;;;5092354;28;20422;-84
2022/11/18 00:27:50;;;;;;;3.05;2.40;;;;;;;;;;5092381;28;20052;-82
2022/11/18 00:30:15;;;;;;;1.73;1.25;;;;;;;;;;5092491;28;20024;-85
2022/11/18 00:32:41;;;;;;;1.83;1.58;;;;;;;;;;5092600;28;20024;-84
2022/11/18 00:35:07;;;;;;;3.58;2.42;;;;;;;;;;5090476;28;20115;-83
2022/11/18 00:37:32;;;;;;;2.55;2.03;;;;;;;;;;5092280;28;20493;-84
2022/11/18 00:39:58;;;;;;;2.03;1.20;;;;;;;;;;5090401;28;20028;-84
2022/11/18 00:45:07;;;;;;;3.25;2.10;;;;;;;;;;5090433;28;20042;-84
2022/11/18 00:47:33;;;;;;;1.85;1.25;;;;;;;;;;5090665;28;20028;-84
2022/11/18 00:49:58;;;;;;;1.33;0.80;;;;;;;;;;5092308;28;20056;-84
2022/11/18 00:52:24;;;;;;;4.43;2.50;;;;;;;;;;5091049;28;20035;-84
2022/11/18 00:54:49;;;;;;;1.70;1.17;;;;;;;;;;5091095;28;20038;-83
2022/11/18 00:57:14;;;;;;;1.55;1.45;;;;;;;;;;5091714;28;20138;-85
2022/11/18 00:59:40;;;;;;;4.57;1.90;;;;;;;;;;5088728;28;20031;-83
2022/11/18 01:02:05;;;;;;;3.55;1.73;;;;;;;;;;5092055;28;20031;-85
2022/11/18 01:04:31;;;;;;;2.20;1.15;;;;;;;;;;5090918;28;20054;-83
2022/11/18 01:06:56;;;;;;;2.30;1.30;;;;;;;;;;5091496;28;20386;-83
2022/11/18 01:09:21;;;;;;;2.25;1.42;;;;;;;;;;5089454;28;20031;-83
2022/11/18 01:14:31;;;;;;;1.00;0.85;;;;;;;;;;5092061;28;20529;-83
2022/11/18 01:16:57;;;;;;;1.33;1.10;;;;;;;;;;5091490;28;20024;-83
2022/11/18 01:19:23;;;;;;;1.95;1.40;;;;;;;;;;5091671;28;20078;-82
2022/11/18 01:21:49;;;;;;;0.93;0.88;;;;;;;;;;5086975;28;20024;-84
2022/11/18 01:24:14;;;;;;;1.30;1.17;;;;;;;;;;5089980;28;20065;-83
2022/11/18 01:26:40;;;;;;;1.50;1.40;;;;;;;;;;5091513;28;20125;-81
2022/11/18 01:29:05;;;;;;;3.25;1.98;;;;;;;;;;5089593;28;20023;-82
2022/11/18 01:31:31;;;;;;;3.30;2.25;;;;;;;;;;5091715;28;20119;-84
2022/11/18 01:33:57;;;;;;;1.55;0.90;;;;;;;;;;5090810;28;20028;-83
2022/11/18 01:36:24;;;;;;;1.73;1.30;;;;;;;;;;5090088;28;20035;-87
2022/11/18 01:38:51;;;;;;;1.00;0.88;;;;;;;;;;5089963;28;20028;-84
2022/11/18 01:41:18;;;;;;;2.78;1.40;;;;;;;;;;5090623;28;20471;-84
2022/11/18 01:44:02;;;;;;;1.05;0.95;;;;;;;;;;5091628;28;20028;-84
2022/11/18 01:46:31;;;;;;;0.45;0.40;;;;;;;;;;5091411;28;20399;-83
2022/11/18 01:49:06;;;;;;;1.65;1.23;;;;;;;;;;5090546;28;20055;-84
2022/11/18 01:51:45;;;;;;;1.13;0.80;;;;;;;;;;5089695;28;20363;-82
2022/11/18 01:54:16;;;;;;;1.73;1.23;;;;;;;;;;5089947;28;20390;-83
2022/11/18 01:56:46;;;;;;;1.65;0.95;;;;;;;;;;5089320;28;20349;-84
2022/11/18 01:59:15;;;;;;;1.55;1.17;;;;;;;;;;5090298;28;20036;-85
2022/11/18 02:01:41;;;;;;;0.75;0.75;;;;;;;;;;5090016;28;20483;-84
2022/11/18 02:04:08;;;;;;;1.77;1.50;;;;;;;;;;5088869;28;20035;-81
2022/11/18 02:06:35;;;;;;;2.20;1.05;;;;;;;;;;5088236;28;20028;-81
2022/11/18 02:09:01;;;;;;;0.90;0.77;;;;;;;;;;5088754;28;20791;-83
2022/11/18 02:14:10;;;;;;;0.93;0.90;;;;;;;;;;5088159;28;20564;-83
2022/11/18 02:16:57;;;;;;;1.23;0.98;;;;;;;;;;5089676;28;20119;-83
2022/11/18 02:19:25;;;;;;;6.35;1.55;;;;;;;;;;5092071;28;20028;-85
2022/11/18 02:22:23;;;;;;;1.27;1.00;;;;;;;;;;5093354;28;20024;-84
2022/11/18 02:25:06;;;;;;;1.05;0.95;;;;;;;;;;5092184;28;20024;-84
2022/11/18 02:28:02;;;;;;;1.33;0.98;;;;;;;;;;5092770;28;20032;-83
2022/11/18 02:30:33;;;;;;;1.83;1.60;;;;;;;;;;5093951;28;20039;-83
2022/11/18 02:33:10;;;;;;;3.35;1.98;;;;;;;;;;5095050;28;20069;-84
2022/11/18 02:35:43;;;;;;;1.85;1.60;;;;;;;;;;5091001;28;20101;-84
2022/11/18 02:38:26;;;;;;;1.73;1.38;;;;;;;;;;5094732;28;20046;-83
2022/11/18 02:40:57;;;;;;;4.95;1.45;;;;;;;;;;5093293;28;20028;-81
2022/11/18 02:43:30;;;;;;;2.13;1.58;;;;;;;;;;5096849;28;20530;-84
2022/11/18 02:46:01;;;;;;;0.80;0.80;;;;;;;;;;5092608;28;20044;-84
2022/11/18 02:48:34;;;;;;;3.75;1.05;;;;;;;;;;5093641;28;20028;-82
2022/11/18 02:51:02;;;;;;;3.15;2.25;;;;;;;;;;5093702;28;20086;-83
2022/11/18 02:53:30;;;;;;;1.25;1.15;;;;;;;;;;5094376;28;20051;-84
2022/11/18 02:55:56;;;;;;;0.68;0.68;;;;;;;;;;5092730;28;20197;-83
2022/11/18 02:58:24;;;;;;;1.83;0.90;;;;;;;;;;5089588;28;20119;-83
2022/11/18 03:01:00;;;;;;;0.95;0.88;;;;;;;;;;5093747;28;20036;-83
2022/11/18 03:03:29;;;;;;;1.17;0.93;;;;;;;;;;5093218;28;20516;-83
2022/11/18 03:06:19;;;;;;;1.42;0.82;;;;;;;;;;5094296;28;20038;-82
2022/11/18 03:08:51;;;;;;;1.88;1.35;;;;;;;;;;5094128;28;20081;-82
2022/11/18 03:11:21;;;;;;;2.35;2.15;;;;;;;;;;5091030;28;20034;-83
2022/11/18 03:14:18;;;;;;;1.60;1.20;;;;;;;;;;5094092;28;20035;-82
2022/11/18 03:16:53;;;;;;;2.95;1.88;;;;;;;;;;5094124;28;20024;-83
2022/11/18 03:19:35;;;;;;;0.70;0.65;;;;;;;;;;5092848;28;20028;-82
2022/11/18 03:22:10;;;;;;;1.00;0.82;;;;;;;;;;5090529;28;20027;-81
2022/11/18 03:24:42;;;;;;;1.42;1.30;;;;;;;;;;5093537;28;20040;-81
2022/11/18 03:27:22;;;;;;;2.53;1.95;;;;;;;;;;5093316;28;20167;-83
2022/11/18 03:29:55;;;;;;;2.60;1.70;;;;;;;;;;5095600;28;20036;-82
2022/11/18 03:32:25;;;;;;;2.15;1.48;;;;;;;;;;5093539;28;20077;-82
2022/11/18 03:34:58;;;;;;;9.23;1.70;;;;;;;;;;5093847;28;20472;-82
2022/11/18 03:37:26;;;;;;;5.22;3.00;;;;;;;;;;5092888;28;20019;-83
2022/11/18 03:39:55;;;;;;;3.10;2.58;;;;;;;;;;5093678;28;20448;-83
2022/11/18 03:42:35;;;;;;;1.45;1.33;;;;;;;;;;5088943;28;20023;-80
2022/11/18 03:45:09;;;;;;;2.78;2.00;;;;;;;;;;5091951;28;20040;-83
2022/11/18 03:47:43;;;;;;;2.42;1.80;;;;;;;;;;5093362;28;20026;-82
2022/11/18 03:50:25;;;;;;;5.60;2.10;;;;;;;;;;5093282;28;20486;-80
2022/11/18 03:52:52;;;;;;;2.90;2.05;;;;;;;;;;5093205;28;20112;-84
2022/11/18 03:55:25;;;;;;;1.90;1.30;;;;;;;;;;5089061;28;20424;-83
2022/11/18 03:57:54;;;;;;;2.50;1.70;;;;;;;;;;5092312;28;20439;-82
2022/11/18 04:00:20;;;;;;;1.65;1.40;;;;;;;;;;5092996;28;20429;-82
2022/11/18 04:02:48;;;;;;;2.28;1.77;;;;;;;;;;5090896;28;20063;-80
2022/11/18 04:05:15;;;;;;;1.92;1.40;;;;;;;;;;5091407;28;20099;-81
2022/11/18 04:07:55;;;;;;;3.53;1.83;;;;;;;;;;5092110;28;20028;-82
2022/11/18 04:10:31;;;;;;;2.55;1.88;;;;;;;;;;5092015;28;20063;-82
2022/11/18 04:13:03;;;;;;;3.67;1.70;;;;;;;;;;5091249;28;20028;-82
2022/11/18 04:15:30;;;;;;;3.10;2.35;;;;;;;;;;5091097;28;20075;-82
2022/11/18 04:17:56;;;;;;;4.10;2.17;;;;;;;;;;5091136;28;20467;-82
2022/11/18 04:20:22;;;;;;;2.55;1.30;;;;;;;;;;5092267;28;20024;-82
2022/11/18 04:22:48;;;;;;;2.53;1.63;;;;;;;;;;5092180;28;20437;-83
2022/11/18 04:25:14;;;;;;;0.98;0.80;;;;;;;;;;5090280;28;20107;-81
2022/11/18 04:27:39;;;;;;;1.92;1.52;;;;;;;;;;5092084;28;20082;-83
2022/11/18 04:30:06;;;;;;;2.45;1.10;;;;;;;;;;5088720;28;21383;-81
2022/11/18 04:32:31;;;;;;;2.55;1.60;;;;;;;;;;5092494;28;20023;-83
2022/11/18 04:34:57;;;;;;;1.20;1.08;;;;;;;;;;5090920;28;20482;-81
2022/11/18 04:37:22;;;;;;;1.17;1.10;;;;;;;;;;5092048;28;20475;-84
2022/11/18 04:39:48;;;;;;;1.63;1.20;;;;;;;;;;5090854;28;20037;-83
2022/11/18 04:42:13;;;;;;;1.38;1.23;;;;;;;;;;5092035;28;20020;-82
2022/11/18 04:44:39;;;;;;;1.30;1.17;;;;;;;;;;5090116;28;20040;-83
2022/11/18 04:47:05;;;;;;;1.85;1.30;;;;;;;;;;5092416;28;20476;-83
2022/11/18 04:49:32;;;;;;;0.85;0.82;;;;;;;;;;5090402;28;20059;-82
2022/11/18 04:51:58;;;;;;;0.95;0.95;;;;;;;;;;5090415;28;20046;-82
2022/11/18 04:54:25;;;;;;;1.63;1.15;;;;;;;;;;5091909;28;20032;-82
2022/11/18 04:56:51;;;;;;;1.65;1.30;;;;;;;;;;5091775;28;20059;-82
2022/11/18 04:59:19;;;;;;;2.05;1.23;;;;;;;;;;5092180;28;20020;-81
2022/11/18 05:01:45;;;;;;;1.33;1.23;;;;;;;;;;5092029;28;20024;-83
2022/11/18 05:04:13;;;;;;;2.35;2.10;;;;;;;;;;5091971;28;20495;-81
2022/11/18 05:06:38;;;;;;;3.03;1.83;;;;;;;;;;5091915;28;20081;-84
2022/11/18 05:09:04;;;;;;;1.83;1.38;;;;;;;;;;5086656;28;20032;-81
2022/11/18 05:14:13;;;;;;;3.28;2.03;;;;;;;;;;5090879;28;20058;-85
2022/11/18 05:16:39;;;;;;;1.77;1.40;;;;;;;;;;5090096;28;20024;-82
2022/11/18 05:19:05;;;;;;;4.63;1.80;;;;;;;;;;5090523;28;20040;-82
2022/11/18 05:21:31;;;;;;;3.10;2.40;;;;;;;;;;5091325;28;20384;-81
2022/11/18 05:23:58;;;;;;;2.38;1.95;;;;;;;;;;5091098;28;20042;-82
2022/11/18 05:26:24;;;;;;;2.28;2.08;;;;;;;;;;5091560;28;20510;-81
2022/11/18 05:28:49;;;;;;;4.32;2.50;;;;;;;;;;5088983;28;20023;-83
2022/11/18 05:31:15;;;;;;;1.80;1.13;;;;;;;;;;5089384;28;20539;-83
2022/11/18 05:33:42;;;;;;;3.00;1.90;;;;;;;;;;5088325;28;20032;-83
2022/11/18 05:36:10;;;;;;;3.05;2.25;;;;;;;;;;5091048;28;20459;-81
2022/11/18 05:38:35;;;;;;;1.92;1.63;;;;;;;;;;5087999;28;20110;-84
2022/11/18 05:41:01;;;;;;;2.13;1.75;;;;;;;;;;5090611;28;20091;-82
2022/11/18 05:43:28;;;;;;;1.63;1.17;;;;;;;;;;5090327;28;20024;-81
2022/11/18 05:45:54;;;;;;;2.30;2.00;;;;;;;;;;5086724;28;20044;-81
2022/11/18 05:48:20;;;;;;;16.02;1.95;;;;;;;;;;5090865;28;20114;-80
2022/11/18 05:50:48;;;;;;;2.20;1.67;;;;;;;;;;5092702;28;20039;-82
2022/11/18 05:53:14;;;;;;;3.17;2.17;;;;;;;;;;5093848;28;20020;-84
2022/11/18 05:55:54;;;;;;;2.78;1.15;;;;;;;;;;5095298;28;20116;-81
2022/11/18 05:58:19;;;;;;;3.88;2.58;;;;;;;;;;5090646;28;20020;-80
2022/11/18 06:00:47;;;;;;;3.90;2.20;;;;;;;;;;5090108;28;20036;-80
2022/11/18 06:03:20;;;;;;;4.20;3.05;;;;;;;;;;5092552;28;20028;-82
2022/11/18 06:05:46;;;;;;;4.60;3.03;;;;;;;;;;5093883;28;20077;-82
2022/11/18 06:08:16;;;;;;;3.38;2.63;;;;;;;;;;5094186;28;20028;-81
2022/11/18 06:10:44;;;;;;;6.47;3.83;;;;;;;;;;5091713;28;20092;-83
2022/11/18 06:13:16;;;;;;;6.53;3.60;;;;;;;;;;5094795;28;20032;-85
2022/11/18 06:15:43;;;;;;;5.05;3.38;;;;;;;;;;5094080;28;20115;-83
2022/11/18 06:18:15;;;;;;;7.07;4.72;;;;;;;;;;5093795;28;20032;-79
2022/11/18 06:20:41;;;;;;;4.53;3.20;;;;;;;;;;5093449;28;20028;-81
2022/11/18 06:23:07;;;;;;;4.45;3.28;;;;;;;;;;5091608;28;20076;-82
2022/11/18 06:25:32;;;;;;;3.70;2.72;;;;;;;;;;5094500;28;20036;-82
2022/11/18 06:28:00;;;;;;;5.38;4.15;;;;;;;;;;5093213;28;20023;-82
2022/11/18 06:30:26;;;;;;;7.25;4.15;;;;;;;;;;5093784;28;20024;-82
2022/11/18 06:32:51;;;;;;;6.20;3.25;;;;;;;;;;5093885;28;20036;-83
2022/11/18 06:35:16;;;;;;;5.53;3.40;;;;;;;;;;5093214;28;20020;-82
2022/11/18 06:37:42;;;;;;;7.25;4.53;;;;;;;;;;5090444;28;20032;-82
2022/11/18 06:40:08;;;;;;;19.88;4.20;;;;;;;;;;5093171;28;20438;-81
2022/11/18 06:45:17;;;;;;;10.60;4.40;;;;;;;;;;5093149;28;20065;-82
2022/11/18 06:47:42;;;;;;;6.82;4.38;;;;;;;;;;5094197;28;20429;-84
2022/11/18 06:50:08;;;;;;;10.57;4.38;;;;;;;;;;5092143;28;20487;-81
2022/11/18 06:52:34;;;;;;;6.80;4.88;;;;;;;;;;5094317;28;20031;-86
2022/11/18 06:54:59;;;;;;;4.32;3.50;;;;;;;;;;5094121;28;20104;-81
2022/11/18 06:57:24;;;;;;;3.42;2.63;;;;;;;;;;5092375;28;20496;-83
2022/11/18 06:59:50;;;;;;;4.70;3.45;;;;;;;;;;5091615;28;20107;-82
2022/11/18 07:02:17;;;;;;;5.60;4.38;;;;;;;;;;5092919;28;20028;-83
2022/11/18 07:04:43;;;;;;;4.95;2.95;;;;;;;;;;5093051;28;20038;-83
2022/11/18 07:07:09;;;;;;;6.80;4.15;;;;;;;;;;5091711;28;20024;-83
2022/11/18 07:09:35;;;;;;;6.88;3.97;;;;;;;;;;5092159;28;20081;-82
2022/11/18 07:12:01;;;;;;;3.97;2.80;;;;;;;;;;5093678;28;20024;-82
2022/11/18 07:14:27;;;;;;;4.93;3.33;;;;;;;;;;5093282;28;20600;-82
2022/11/18 07:16:52;;;;;;;3.60;2.80;;;;;;;;;;5093143;28;20024;-82
2022/11/18 07:19:18;;;;;;;4.72;2.92;;;;;;;;;;5093006;28;20024;-85
2022/11/18 07:21:43;;;;;;;3.95;3.25;;;;;;;;;;5092358;28;20099;-83
2022/11/18 07:24:12;;;;;;;7.13;3.45;;;;;;;;;;5091664;28;20032;-80
2022/11/18 07:26:37;;;;;;;5.32;3.67;;;;;;;;;;5092622;28;20048;-82
2022/11/18 07:29:03;;;;;;;5.07;3.60;;;;;;;;;;5093242;28;20059;-83
2022/11/18 07:31:29;;;;;;;5.85;2.88;;;;;;;;;;5092366;28;20031;-84
2022/11/18 07:33:54;;;;;;;3.90;2.90;;;;;;;;;;5091273;28;20505;-83
2022/11/18 07:36:22;;;;;;;5.97;3.65;;;;;;;;;;5092918;28;20411;-84
2022/11/18 07:38:48;;;;;;;12.90;4.85;;;;;;;;;;5091372;28;20056;-84
2022/11/18 07:41:15;;;;;;;8.77;5.10;;;;;;;;;;5092452;28;20420;-82
2022/11/18 07:43:41;;;;;;;6.05;3.58;;;;;;;;;;5091382;28;20107;-83
2022/11/18 07:46:13;;;;;;;5.18;3.88;;;;;;;;;;5090036;28;20032;-84
2022/11/18 07:48:40;;;;;;;6.22;4.38;;;;;;;;;;5090516;28;20063;-83
2022/11/18 07:51:06;;;;;;;6.10;3.67;;;;;;;;;;5092788;28;20127;-81
2022/11/18 07:53:33;;;;;;;6.00;3.67;;;;;;;;;;5093273;28;20039;-80
2022/11/18 07:55:59;;;;;;;10.25;5.82;;;;;;;;;;5092749;28;20077;-84
2022/11/18 07:58:24;;;;;;;8.85;4.55;;;;;;;;;;5092831;28;20035;-83
2022/11/18 08:00:49;;;;;;;6.80;4.80;;;;;;;;;;5093128;28;20111;-82
2022/11/18 08:03:15;;;;;;;9.75;5.38;;;;;;;;;;5092979;28;20500;-82
2022/11/18 08:05:40;;;;;;;13.90;5.22;;;;;;;;;;5093230;28;20093;-83
2022/11/18 08:08:06;;;;;;;9.43;5.68;;;;;;;;;;5091147;28;20024;-84
2022/11/18 08:10:31;;;;;;;14.43;6.18;;;;;;;;;;5092620;28;20035;-84
2022/11/18 08:12:56;;;;;;;9.93;5.45;;;;;;;;;;5090847;28;20079;-80
2022/11/18 08:15:23;;;;;;;8.65;4.38;;;;;;;;;;5090296;28;20031;-81
2022/11/18 08:17:49;;;;;;;7.63;4.63;;;;;;;;;;5091368;28;20471;-84
2022/11/18 08:20:15;;;;;;;9.13;5.60;;;;;;;;;;5092576;28;20085;-85
2022/11/18 08:22:44;;;;;;;7.57;4.55;;;;;;;;;;5094874;28;20035;-85
2022/11/18 08:25:09;;;;;;;7.47;3.65;;;;;;;;;;5092095;28;20466;-85
2022/11/18 08:27:35;;;;;;;6.95;4.07;;;;;;;;;;5092657;28;20028;-82
2022/11/18 08:30:03;;;;;;;4.05;2.83;;;;;;;;;;5077324;28;20099;-83
2022/11/18 08:32:29;;;;;;;6.40;3.80;;;;;;;;;;5084845;28;20082;-80
2022/11/18 08:34:54;;;;;;;3.90;2.60;;;;;;;;;;5092855;28;20040;-84
2022/11/18 08:37:20;;;;;;;5.88;4.47;;;;;;;;;;5090486;28;20089;-83
2022/11/18 08:39:45;;;;;;;6.55;3.45;;;;;;;;;;5093571;28;20448;-83
2022/11/18 08:42:11;;;;;;;4.35;3.20;;;;;;;;;;5089007;28;20436;-81
2022/11/18 08:44:36;;;;;;;5.20;3.13;;;;;;;;;;5091769;28;20071;-83
2022/11/18 08:47:02;;;;;;;7.03;3.30;;;;;;;;;;5093058;28;20134;-81
2022/11/18 08:49:27;;;;;;;6.47;3.53;;;;;;;;;;5090425;28;20102;-80
2022/11/18 08:51:55;;;;;;;3.83;2.72;;;;;;;;;;5087939;28;20031;-82
2022/11/18 08:54:21;;;;;;;5.90;3.83;;;;;;;;;;5090532;28;20110;-83
2022/11/18 08:56:46;;;;;;;3.53;2.35;;;;;;;;;;5090580;28;20161;-79
2022/11/18 08:59:12;;;;;;;10.85;5.60;;;;;;;;;;5091458;28;20055;-82
2022/11/18 09:01:40;;;;;;;4.80;3.80;;;;;;;;;;5088219;28;20480;-81
2022/11/18 09:04:06;;;;;;;5.07;3.92;;;;;;;;;;5092475;28;20111;-82
2022/11/18 09:06:33;;;;;;;9.38;4.32;;;;;;;;;;5089857;28;20118;-81
2022/11/18 09:08:59;;;;;;;7.22;4.07;;;;;;;;;;5091164;28;20032;-82
2022/11/18 09:11:26;;;;;;;3.08;2.10;;;;;;;;;;5091915;28;20525;-80
2022/11/18 09:13:53;;;;;;;3.03;2.30;;;;;;;;;;5092708;28;20023;-83
2022/11/18 09:16:19;;;;;;;3.22;2.33;;;;;;;;;;5091578;28;20026;-80
2022/11/18 09:18:44;;;;;;;4.47;2.42;;;;;;;;;;5089684;28;20115;-81
2022/11/18 09:21:10;;;;;;;9.38;4.07;;;;;;;;;;5088738;28;20034;-82
2022/11/18 09:23:36;;;;;;;3.92;2.78;;;;;;;;;;5088274;28;20156;-79
2022/11/18 09:26:25;;;;;;;3.00;1.77;;;;;;;;;;5088241;28;20491;-83
2022/11/18 09:28:53;;;;;;;4.03;3.10;;;;;;;;;;5088092;28;20068;-81
2022/11/18 09:31:19;;;;;;;7.53;3.35;;;;;;;;;;5090179;28;20059;-80
2022/11/18 09:33:44;;;;;;;4.28;2.85;;;;;;;;;;5087309;28;20054;-80
2022/11/18 09:36:13;;;;;;;3.78;2.60;;;;;;;;;;5089683;28;20036;-84
2022/11/18 09:38:39;;;;;;;2.85;1.98;;;;;;;;;;5086929;28;20103;-84
2022/11/18 09:41:05;;;;;;;3.65;2.08;;;;;;;;;;5090013;28;20127;-81
2022/11/18 09:43:42;;;;;;;2.63;1.52;;;;;;;;;;5089520;28;20039;-80
2022/11/18 09:46:45;;;;;;;2.60;1.80;;;;;;;;;;5090033;28;20044;-83
2022/11/18 09:49:29;;;;;;;3.53;1.55;;;;;;;;;;5090879;28;20048;-83
2022/11/18 09:51:55;;;;;;;4.18;2.53;;;;;;;;;;5090198;28;20119;-83
2022/11/18 09:54:24;;;;;;;6.18;2.45;;;;;;;;;;5091395;28;20488;-84
2022/11/18 09:56:51;;;;;;;3.45;2.28;;;;;;;;;;5091325;28;20059;-84
2022/11/18 09:59:23;;;;;;;2.30;1.33;;;;;;;;;;5089175;28;20031;-82
2022/11/18 10:01:51;;;;;;;3.85;2.00;;;;;;;;;;5087979;28;20032;-84
2022/11/18 10:04:19;;;;;;;4.10;1.85;;;;;;;;;;5088331;28;20430;-83
2022/11/18 10:06:46;;;;;;;7.28;2.97;;;;;;;;;;5091179;28;20392;-82
2022/11/18 10:09:25;;;;;;;3.72;2.70;;;;;;;;;;5089701;28;20052;-83
2022/11/18 10:12:18;;;;;;;3.92;2.65;;;;;;;;;;5091259;28;20055;-82
2022/11/18 10:15:14;;;;;;;4.63;2.42;;;;;;;;;;5089004;28;20036;-82
2022/11/18 10:17:51;;;;;;;7.78;2.30;;;;;;;;;;5088394;28;20024;-84
2022/11/18 10:20:23;;;;;;;5.72;2.42;;;;;;;;;;5090285;28;20016;-84
2022/11/18 10:23:15;;;;;;;5.95;3.35;;;;;;;;;;5089664;28;20031;-82
2022/11/18 10:25:41;;;;;;;9.10;3.35;;;;;;;;;;5086728;28;20028;-83
2022/11/18 10:28:22;;;;;;;5.25;3.38;;;;;;;;;;5091058;28;20111;-83
2022/11/18 10:30:48;;;;;;;7.10;2.95;;;;;;;;;;5088809;28;20028;-82
2022/11/18 10:33:20;;;;;;;3.97;2.75;;;;;;;;;;5090696;28;20373;-82
2022/11/18 10:35:45;;;;;;;8.32;3.15;;;;;;;;;;5091495;28;20020;-83
2022/11/18 10:38:13;;;;;;;4.65;2.50;;;;;;;;;;5093437;28;20164;-81
2022/11/18 10:40:51;;;;;;;7.45;3.00;;;;;;;;;;5093882;28;20024;-81
2022/11/18 10:43:48;;;;;;;4.72;2.88;;;;;;;;;;5093432;28;20024;-84
2022/11/18 10:46:18;;;;;;;7.47;3.90;;;;;;;;;;5093842;28;20408;-84
2022/11/18 10:48:44;;;;;;;4.72;2.80;;;;;;;;;;5094810;28;20054;-82
2022/11/18 10:51:23;;;;;;;5.07;3.00;;;;;;;;;;5094788;28;20391;-82
2022/11/18 10:53:52;;;;;;;4.40;3.00;;;;;;;;;;5096355;28;20512;-83
2022/11/18 10:56:17;;;;;;;1.33;0.75;;;;;;;;;;5094921;28;20028;-84
2022/11/18 10:58:47;;;;;;;4.57;3.22;;;;;;;;;;5093324;28;20438;-83
2022/11/18 11:01:23;;;;;;;3.85;2.55;;;;;;;;;;5092661;28;20032;-83
2022/11/18 11:04:01;;;;;;;4.07;2.42;;;;;;;;;;5094294;28;20488;-83
2022/11/18 11:06:26;;;;;;;2.47;2.00;;;;;;;;;;5094145;28;20035;-83
2022/11/18 11:08:58;;;;;;;2.67;1.42;;;;;;;;;;5093806;28;20020;-84
2022/11/18 11:11:39;;;;;;;1.65;1.15;;;;;;;;;;5091104;28;20081;-82
2022/11/18 11:14:12;;;;;;;1.77;1.02;;;;;;;;;;5093694;28;20822;-84
2022/11/18 11:16:47;;;;;;;1.30;0.75;;;;;;;;;;5092979;28;20039;-84
2022/11/18 11:19:16;;;;;;;1.48;1.00;;;;;;;;;;5092504;28;20031;-83
2022/11/18 11:21:41;;;;;;;2.33;1.23;;;;;;;;;;5093385;28;20587;-85
2022/11/18 11:24:11;;;;;;;5.30;2.45;;;;;;;;;;5094006;28;20020;-82
2022/11/18 11:26:57;;;;;;;4.78;2.83;;;;;;;;;;5092774;28;20111;-83
2022/11/18 11:30:00;;;;;;;6.10;2.97;;;;;;;;;;5093884;28;20035;-82
2022/11/18 11:33:05;;;;;;;6.03;3.13;;;;;;;;;;5092334;28;20020;-83
2022/11/18 11:35:47;;;;;;;5.88;2.88;;;;;;;;;;5091479;28;20055;-85
2022/11/18 11:38:58;;;;;;;8.38;3.47;;;;;;;;;;5089322;28;20023;-82
2022/11/18 11:41:52;;;;;;;5.93;3.28;;;;;;;;;;5080132;28;20036;-82
2022/11/18 11:44:28;;;;;;;8.52;3.97;;;;;;;;;;5091484;28;20036;-82
2022/11/18 11:50:06;;;;;;;4.35;2.42;;;;;;;;;;5093507;28;20098;-83
2022/11/18 11:52:40;;;;;;;5.43;2.65;;;;;;;;;;5093657;28;20091;-83
2022/11/18 11:55:17;;;;;;;5.38;2.75;;;;;;;;;;5093622;28;20407;-84
2022/11/18 11:58:05;;;;;;;2.50;1.60;;;;;;;;;;5089985;28;20156;-83
2022/11/18 12:00:38;;;;;;;2.58;1.70;;;;;;;;;;5093543;28;20070;-80
2022/11/18 12:03:30;;;;;;;3.13;1.90;;;;;;;;;;5093339;28;20028;-83
2022/11/18 12:05:56;;;;;;;2.97;1.83;;;;;;;;;;5093037;28;20107;-83
2022/11/18 12:08:24;;;;;;;15.77;3.10;;;;;;;;;;5093187;28;20071;-84
2022/11/18 12:11:07;;;;;;;5.95;3.10;;;;;;;;;;5092820;28;20039;-81
2022/11/18 12:13:51;;;;;;;9.57;3.53;;;;;;;;;;5092785;28;20028;-85
2022/11/18 12:16:35;;;;;;;7.35;3.05;;;;;;;;;;5090392;28;20024;-82
2022/11/18 12:19:09;;;;;;;7.82;3.40;;;;;;;;;;5092642;28;20410;-84
2022/11/18 12:21:42;;;;;;;4.25;2.83;;;;;;;;;;5093976;28;20054;-85
2022/11/18 12:24:16;;;;;;;3.03;2.15;;;;;;;;;;5092399;28;20373;-84
2022/11/18 12:26:43;;;;;;;5.07;1.88;;;;;;;;;;5092639;28;20024;-84
2022/11/18 12:29:37;;;;;;;2.15;1.40;;;;;;;;;;5094141;28;20028;-85
2022/11/18 12:32:13;;;;;;;2.88;1.80;;;;;;;;;;5088113;28;20097;-84
2022/11/18 12:34:43;;;;;;;4.50;2.65;;;;;;;;;;5089372;28;20032;-84
2022/11/18 12:37:31;;;;;;;4.10;1.85;;;;;;;;;;5092901;28;20036;-84
2022/11/18 12:39:58;;;;;;;2.80;1.77;;;;;;;;;;5086572;28;20043;-84
2022/11/18 12:45:40;;;;;;;0.40;0.40;;;;;;;;;;5091936;28;20062;-83
2022/11/18 12:48:34;;;;;;;0.80;0.60;;;;;;;;;;5092696;28;20081;-83
2022/11/18 12:51:13;;;;;;;0.60;0.60;;;;;;;;;;5087772;28;20036;-84
2022/11/18 12:53:42;;;;;;;0.47;0.47;;;;;;;;;;5093104;28;20101;-85
2022/11/18 12:56:21;;;;;;;1.52;1.00;;;;;;;;;;5093233;28;20020;-85
2022/11/18 12:58:58;;;;;;;0.50;0.50;;;;;;;;;;5091279;28;20380;-82
2022/11/18 13:01:26;;;;;;;3.53;0.73;;;;;;;;;;5090705;28;20054;-85
2022/11/18 13:04:14;;;;;;;1.08;0.70;;;;;;;;;;5091777;28;20384;-81
2022/11/18 13:06:41;;;;;;;1.63;0.77;;;;;;;;;;5091151;28;20028;-82
2022/11/18 13:09:26;;;;;;;3.28;1.60;;;;;;;;;;5089343;28;20073;-82
2022/11/18 13:11:56;;;;;;;1.05;0.95;;;;;;;;;;5090006;28;20121;-84
2022/11/18 13:20:22;;;;;;;1.75;0.88;;;;;;;;;;5088318;28;20179;-82
2022/11/18 13:25:37;;;;;;;0.63;0.47;;;;;;;;;;5085814;28;20085;-84
2022/11/18 13:28:02;;;;;;;0.73;0.43;;;;;;;;;;5091352;28;20028;-83
2022/11/18 13:30:29;;;;;;;0.57;0.57;;;;;;;;;;5090434;28;20107;-84
2022/11/18 13:32:57;;;;;;;1.00;0.73;;;;;;;;;;5090522;28;20051;-85
2022/11/18 13:35:26;;;;;;;2.53;0.77;;;;;;;;;;5090499;28;20110;-82
2022/11/18 13:37:59;;;;;;;0.88;0.73;;;;;;;;;;5089432;28;20028;-85
2022/11/18 13:40:38;;;;;;;1.55;0.65;;;;;;;;;;5088183;28;20016;-84
2022/11/18 13:43:03;;;;;;;0.93;0.65;;;;;;;;;;5090380;28;20032;-86
2022/11/18 13:45:29;;;;;;;1.25;0.70;;;;;;;;;;5091596;28;20529;-86
2022/11/18 13:48:04;;;;;;;2.10;1.25;;;;;;;;;;5091080;28;20031;-86
2022/11/18 13:50:51;;;;;;;0.60;0.40;;;;;;;;;;5086986;28;20084;-83
2022/11/18 13:53:37;;;;;;;1.00;0.82;;;;;;;;;;5091147;28;20019;-82
2022/11/18 13:56:15;;;;;;;1.50;0.70;;;;;;;;;;5091336;28;20468;-86
2022/11/18 13:58:41;;;;;;;2.20;0.50;;;;;;;;;;5086910;28;20047;-85
2022/11/18 14:01:25;;;;;;;0.75;0.60;;;;;;;;;;5091752;28;20058;-84
2022/11/18 14:03:58;;;;;;;0.85;0.55;;;;;;;;;;5091757;28;20028;-87
2022/11/18 14:06:34;;;;;;;0.55;0.32;;;;;;;;;;5089498;28;20476;-85
2022/11/18 14:09:21;;;;;;;1.55;0.70;;;;;;;;;;5092242;28;20028;-84
2022/11/18 14:12:13;;;;;;;1.25;0.70;;;;;;;;;;5089833;28;20505;-84
2022/11/18 14:14:40;;;;;;;1.23;0.50;;;;;;;;;;5094468;28;20024;-84
2022/11/18 14:17:23;;;;;;;0.85;0.55;;;;;;;;;;5095270;28;20171;-85
2022/11/18 14:19:53;;;;;;;0.38;0.38;;;;;;;;;;5088930;28;20080;-87
2022/11/18 14:22:22;;;;;;;0.30;0.30;;;;;;;;;;5093822;28;20051;-83
2022/11/18 14:24:55;;;;;;;0.95;0.60;;;;;;;;;;5088162;28;20384;-83
2022/11/18 14:27:37;;;;;;;0.55;0.55;;;;;;;;;;5093072;28;20028;-83
2022/11/18 14:30:35;;;;;;;1.83;0.85;;;;;;;;;;5090884;28;20050;-84
2022/11/18 14:33:14;;;;;;;1.27;0.85;;;;;;;;;;5120036;27;20024;-84
2022/11/18 14:35:42;;;;;;;1.48;1.30;;;;;;;;;;5093394;28;20110;-84
2022/11/18 14:38:34;;;;;;;3.15;1.25;;;;;;;;;;5094888;28;20034;-83
2022/11/18 14:41:02;;;;;;;0.70;0.60;;;;;;;;;;5077958;28;20032;-82
2022/11/18 14:43:28;;;;;;;1.02;0.65;;;;;;;;;;5093523;28;20023;-83
2022/11/18 14:46:14;;;;;;;0.70;0.70;;;;;;;;;;5092392;28;20128;-82
2022/11/18 14:48:39;;;;;;;0.50;0.40;;;;;;;;;;5094821;28;20032;-82
2022/11/18 14:51:05;;;;;;;0.82;0.50;;;;;;;;;;5092355;28;20042;-81
2022/11/18 14:53:30;;;;;;;0.77;0.57;;;;;;;;;;5094601;28;20031;-82
2022/11/18 14:55:58;;;;;;;0.82;0.68;;;;;;;;;;5094221;28;20024;-85
2022/11/18 14:58:24;;;;;;;0.63;0.50;;;;;;;;;;5094423;28;20028;-83
2022/11/18 15:00:49;;;;;;;0.93;0.60;;;;;;;;;;5092995;28;20024;-82
2022/11/18 15:03:15;;;;;;;0.65;0.60;;;;;;;;;;5094369;28;20024;-80
2022/11/18 15:05:41;;;;;;;0.95;0.68;;;;;;;;;;5093217;28;20035;-82
2022/11/18 15:08:06;;;;;;;0.43;0.40;;;;;;;;;;5089671;28;20405;-81
2022/11/18 15:10:32;;;;;;;0.60;0.60;;;;;;;;;;5091737;28;20050;-84
2022/11/18 15:12:57;;;;;;;0.82;0.68;;;;;;;;;;5091793;28;20436;-84
2022/11/18 15:15:23;;;;;;;0.93;0.65;;;;;;;;;;5092636;28;20099;-86
2022/11/18 15:17:48;;;;;;;0.32;0.32;;;;;;;;;;5094262;28;20031;-85
2022/11/18 15:20:17;;;;;;;1.08;0.40;;;;;;;;;;5093528;28;20159;-84
2022/11/18 15:22:42;;;;;;;1.02;0.55;;;;;;;;;;5091363;28;20747;-83
2022/11/18 15:25:08;;;;;;;1.88;1.02;;;;;;;;;;5093155;28;20070;-83
2022/11/18 15:27:34;;;;;;;1.20;0.82;;;;;;;;;;5093381;28;20475;-84
2022/11/18 15:30:00;;;;;;;0.98;0.38;;;;;;;;;;5093668;28;20072;-80
2022/11/18 15:32:25;;;;;;;0.65;0.25;;;;;;;;;;5092635;28;20110;-80
2022/11/18 15:34:50;;;;;;;2.10;0.65;;;;;;;;;;5092821;28;20028;-82